createdAt,value
2022-12-04T00:01:15.619Z,89.98
2022-12-04T00:03:42.344Z,89.67
2022-12-04T00:06:17.509Z,89.16
2022-12-04T00:08:45.628Z,88.56
2022-12-04T00:11:14.160Z,87.38
2022-12-04T00:13:41.235Z,86.52
2022-12-04T00:16:11.546Z,86.82
2022-12-04T00:18:38.361Z,87.18
2022-12-04T00:21:09.687Z,87.25
2022-12-04T00:23:37.305Z,87.29
2022-12-04T00:26:23.415Z,86.53
2022-12-04T00:28:50.692Z,87.18
2022-12-04T00:31:22.746Z,87.21
2022-12-04T00:33:49.324Z,87.40
2022-12-04T00:36:18.992Z,86.97
2022-12-04T00:38:46.253Z,87.31
2022-12-04T00:41:14.359Z,86.93
2022-12-04T00:43:41.332Z,86.81
2022-12-04T00:46:08.257Z,86.89
2022-12-04T00:48:35.177Z,87.12
2022-12-04T00:51:03.853Z,87.02
2022-12-04T00:53:30.833Z,86.68
2022-12-04T00:55:57.700Z,87.72
2022-12-04T00:58:25.004Z,87.83
2022-12-04T01:01:00.820Z,86.86
2022-12-04T01:03:27.364Z,86.63
2022-12-04T01:05:53.804Z,87.67
2022-12-04T01:08:20.311Z,87.09
2022-12-04T01:10:46.830Z,88.95
2022-12-04T01:13:13.332Z,89.41
2022-12-04T01:15:42.432Z,88.74
2022-12-04T01:18:12.336Z,88.09
2022-12-04T01:20:38.847Z,88.09
2022-12-04T01:23:05.474Z,88.34
2022-12-04T01:25:32.348Z,89.69
2022-12-04T01:27:58.842Z,88.26
2022-12-04T01:30:25.348Z,87.55
2022-12-04T01:32:51.823Z,87.75
2022-12-04T01:35:21.424Z,87.15
2022-12-04T01:37:47.856Z,87.52
2022-12-04T01:40:16.126Z,86.64
2022-12-04T01:42:42.588Z,86.01
2022-12-04T01:45:46.056Z,85.69
2022-12-04T01:48:25.645Z,86.47
2022-12-04T01:50:58.437Z,86.03
2022-12-04T01:53:25.624Z,85.93
2022-12-04T01:55:52.223Z,84.80
2022-12-04T01:58:23.790Z,84.76
2022-12-04T02:00:58.194Z,84.74
2022-12-04T02:06:14.590Z,84.26
2022-12-04T02:08:41.287Z,84.99
2022-12-04T02:11:30.759Z,85.92
2022-12-04T02:14:05.260Z,86.67
2022-12-04T02:16:43.585Z,86.40
2022-12-04T02:19:58.686Z,85.99
2022-12-04T02:23:08.245Z,85.80
2022-12-04T02:26:07.045Z,86.55
2022-12-04T02:28:52.781Z,86.31
2022-12-04T02:31:26.301Z,85.85
2022-12-04T02:34:16.429Z,86.02
2022-12-04T02:36:55.746Z,85.72
2022-12-04T02:39:24.244Z,86.73
2022-12-04T02:42:05.657Z,86.64
2022-12-04T02:44:49.855Z,86.40
2022-12-04T02:47:23.097Z,86.34
2022-12-04T02:49:55.569Z,86.26
2022-12-04T02:52:28.236Z,85.78
2022-12-04T02:55:01.896Z,86.08
2022-12-04T02:57:35.441Z,88.52
2022-12-04T03:00:05.628Z,88.77
2022-12-04T03:02:39.371Z,88.36
2022-12-04T03:05:12.848Z,86.75
2022-12-04T03:07:45.949Z,86.32
2022-12-04T03:10:18.307Z,86.28
2022-12-04T03:12:50.393Z,86.30
2022-12-04T03:15:42.909Z,86.91
2022-12-04T03:18:23.648Z,86.20
2022-12-04T03:20:55.028Z,87.38
2022-12-04T03:23:28.302Z,88.08
2022-12-04T03:25:58.573Z,86.99
2022-12-04T03:28:57.514Z,86.31
2022-12-04T03:31:49.142Z,86.30
2022-12-04T03:34:25.754Z,86.35
2022-12-04T03:36:57.284Z,85.83
2022-12-04T03:39:38.981Z,85.76
2022-12-04T03:42:16.074Z,85.79
2022-12-04T03:45:14.903Z,85.80
2022-12-04T03:47:51.811Z,84.95
2022-12-04T03:50:38.484Z,85.13
2022-12-04T03:53:20.045Z,86.62
2022-12-04T03:56:02.115Z,87.52
2022-12-04T03:58:32.002Z,87.81
2022-12-04T04:01:03.948Z,87.95
2022-12-04T04:03:36.861Z,88.03
2022-12-04T04:06:10.455Z,87.80
2022-12-04T04:08:42.287Z,87.60
2022-12-04T04:11:23.631Z,87.90
2022-12-04T04:14:21.108Z,88.33
2022-12-04T04:17:11.949Z,89.66
2022-12-04T04:20:00.576Z,90.45
2022-12-04T04:22:46.012Z,90.52
2022-12-04T04:25:20.666Z,90.25
2022-12-04T04:27:58.647Z,89.01
2022-12-04T04:30:29.390Z,89.91
2022-12-04T04:33:10.968Z,89.44
2022-12-04T04:35:44.712Z,89.50
2022-12-04T04:38:22.220Z,88.69
2022-12-04T04:41:01.761Z,88.55
2022-12-04T04:43:40.145Z,88.01
2022-12-04T04:46:38.594Z,87.12
2022-12-04T04:49:08.683Z,87.04
2022-12-04T04:51:35.482Z,86.86
2022-12-04T04:54:06.353Z,86.11
2022-12-04T04:56:39.220Z,85.86
2022-12-04T04:59:05.636Z,87.35
2022-12-04T05:01:32.112Z,86.54
2022-12-04T05:03:58.605Z,87.39
2022-12-04T05:06:25.086Z,88.80
2022-12-04T05:08:51.536Z,90.29
2022-12-04T05:11:17.953Z,90.03
2022-12-04T05:13:44.476Z,88.33
2022-12-04T05:16:13.704Z,88.07
2022-12-04T05:18:40.830Z,88.14
2022-12-04T05:21:08.247Z,88.06
2022-12-04T05:23:35.367Z,87.69
2022-12-04T05:26:04.589Z,88.51
2022-12-04T05:28:31.202Z,88.51
2022-12-04T05:30:59.774Z,88.22
2022-12-04T05:33:26.242Z,89.20
2022-12-04T05:36:01.034Z,88.13
2022-12-04T05:38:27.603Z,87.70
2022-12-04T05:40:54.094Z,87.13
2022-12-04T05:43:20.643Z,87.60
2022-12-04T05:45:47.097Z,86.79
2022-12-04T05:48:13.539Z,87.52
2022-12-04T05:50:39.938Z,88.55
2022-12-04T05:53:06.353Z,87.92
2022-12-04T05:55:32.855Z,87.06
2022-12-04T05:57:59.292Z,87.09
2022-12-04T06:00:26.211Z,87.16
2022-12-04T06:02:52.703Z,86.78
2022-12-04T06:05:19.307Z,86.24
2022-12-04T06:07:45.923Z,85.68
2022-12-04T06:10:12.493Z,85.77
2022-12-04T06:12:38.964Z,88.20
2022-12-04T06:15:05.867Z,88.04
2022-12-04T06:17:32.354Z,87.79
2022-12-04T06:19:59.438Z,88.33
2022-12-04T06:22:26.181Z,87.93
2022-12-04T06:24:52.562Z,87.90
2022-12-04T06:27:28.016Z,87.19
2022-12-04T06:29:55.017Z,86.56
2022-12-04T06:32:22.304Z,86.91
2022-12-04T06:34:55.162Z,87.07
2022-12-04T06:37:23.965Z,86.65
2022-12-04T06:39:51.592Z,87.73
2022-12-04T06:42:18.297Z,88.63
2022-12-04T06:44:44.744Z,88.05
2022-12-04T06:47:11.279Z,87.05
2022-12-04T06:49:37.784Z,87.27
2022-12-04T06:52:04.226Z,86.78
2022-12-04T06:54:30.705Z,87.86
2022-12-04T06:56:57.147Z,87.53
2022-12-04T06:59:23.903Z,87.96
2022-12-04T07:01:50.607Z,87.98
2022-12-04T07:04:17.167Z,87.65
2022-12-04T07:06:43.627Z,88.10
2022-12-04T07:09:14.009Z,89.01
2022-12-04T07:11:42.348Z,88.64
2022-12-04T07:14:09.591Z,88.44
2022-12-04T07:16:40.829Z,88.76
2022-12-04T07:19:09.492Z,88.01
2022-12-04T07:21:35.963Z,88.17
2022-12-04T07:24:02.432Z,88.14
2022-12-04T07:26:30.432Z,87.77
2022-12-04T07:28:58.268Z,87.72
2022-12-04T07:31:26.703Z,87.10
2022-12-04T07:33:54.451Z,88.47
2022-12-04T07:36:22.815Z,87.64
2022-12-04T07:38:50.250Z,87.17
2022-12-04T07:41:17.349Z,86.59
2022-12-04T07:43:44.414Z,86.97
2022-12-04T07:46:16.815Z,87.68
2022-12-04T07:48:43.442Z,86.90
2022-12-04T07:51:15.687Z,86.81
2022-12-04T07:53:42.970Z,87.42
2022-12-04T07:56:10.863Z,86.86
2022-12-04T07:58:37.382Z,86.72
2022-12-04T08:01:11.075Z,86.42
2022-12-04T08:03:43.538Z,86.28
2022-12-04T08:06:12.186Z,86.45
2022-12-04T08:08:39.118Z,86.59
2022-12-04T08:11:07.733Z,86.40
2022-12-04T08:13:34.998Z,85.83
2022-12-04T08:16:02.909Z,86.10
2022-12-04T08:18:29.512Z,86.28
2022-12-04T08:21:03.860Z,86.69
2022-12-04T08:23:30.356Z,85.92
2022-12-04T08:25:59.719Z,87.04
2022-12-04T08:28:26.449Z,87.72
2022-12-04T08:30:52.946Z,89.53
2022-12-04T08:33:19.523Z,87.88
2022-12-04T08:35:45.932Z,87.36
2022-12-04T08:38:12.462Z,87.18
2022-12-04T08:40:38.914Z,88.29
2022-12-04T08:43:05.757Z,87.34
2022-12-04T08:45:32.170Z,86.98
2022-12-04T08:47:58.687Z,87.16
2022-12-04T08:50:25.104Z,86.87
2022-12-04T08:52:51.535Z,87.51
2022-12-04T08:55:17.951Z,87.02
2022-12-04T08:57:44.356Z,87.06
2022-12-04T09:00:12.848Z,87.41
2022-12-04T09:02:39.280Z,87.39
2022-12-04T09:05:05.887Z,87.30
2022-12-04T09:07:32.416Z,87.38
2022-12-04T09:09:59.104Z,87.92
2022-12-04T09:12:25.632Z,88.71
2022-12-04T09:14:52.037Z,88.83
2022-12-04T09:17:18.447Z,88.49
2022-12-04T09:19:44.952Z,89.10
2022-12-04T09:22:11.432Z,89.38
2022-12-04T09:24:37.860Z,89.47
2022-12-04T09:27:04.315Z,88.39
2022-12-04T09:29:30.745Z,88.02
2022-12-04T09:31:57.153Z,88.86
2022-12-04T09:34:23.584Z,88.74
2022-12-04T09:36:50.207Z,88.87
2022-12-04T09:39:16.635Z,89.94
2022-12-04T09:41:43.065Z,89.43
2022-12-04T09:44:09.444Z,89.63
2022-12-04T09:46:50.776Z,88.69
2022-12-04T09:49:25.486Z,88.18
2022-12-04T09:51:56.465Z,87.30
2022-12-04T09:54:29.680Z,87.81
2022-12-04T09:57:03.030Z,88.19
2022-12-04T09:59:31.942Z,87.77
2022-12-04T10:02:15.847Z,87.91
2022-12-04T10:04:42.404Z,87.30
2022-12-04T10:07:41.078Z,87.56
2022-12-04T10:10:31.216Z,87.58
2022-12-04T10:13:20.961Z,87.63
2022-12-04T10:15:47.395Z,87.92
2022-12-04T10:18:38.301Z,87.64
2022-12-04T10:21:20.381Z,88.05
2022-12-04T10:23:55.117Z,89.06
2022-12-04T10:26:27.522Z,88.36
2022-12-04T10:29:02.429Z,88.84
2022-12-04T10:31:30.514Z,88.89
2022-12-04T10:34:02.661Z,88.97
2022-12-04T10:36:33.484Z,89.02
2022-12-04T10:39:19.006Z,89.97
2022-12-04T10:41:49.206Z,91.05
2022-12-04T10:44:18.108Z,90.87
2022-12-04T10:46:46.547Z,90.79
2022-12-04T10:49:19.450Z,91.67
2022-12-04T10:51:46.854Z,91.44
2022-12-04T10:54:30.988Z,90.03
2022-12-04T10:57:00.653Z,90.04
2022-12-04T10:59:28.456Z,89.52
2022-12-04T11:02:26.946Z,89.95
2022-12-04T11:05:01.838Z,89.15
2022-12-04T11:07:33.981Z,88.93
2022-12-04T11:10:17.136Z,89.69
2022-12-04T11:12:57.139Z,90.67
2022-12-04T11:15:24.231Z,90.73
2022-12-04T11:17:52.408Z,90.85
2022-12-04T11:20:25.072Z,91.44
2022-12-04T11:22:59.035Z,91.28
2022-12-04T11:25:28.680Z,91.71
2022-12-04T11:27:59.435Z,91.51
2022-12-04T11:30:32.410Z,91.83
2022-12-04T11:33:00.109Z,91.91
2022-12-04T11:35:29.822Z,91.51
2022-12-04T11:38:09.797Z,91.57
2022-12-04T11:40:36.688Z,91.62
2022-12-04T11:43:14.262Z,91.53
2022-12-04T11:45:41.704Z,91.43
2022-12-04T11:48:22.337Z,91.11
2022-12-04T11:51:26.732Z,90.97
2022-12-04T11:53:56.076Z,90.70
2022-12-04T11:56:31.622Z,90.90
2022-12-04T11:58:57.970Z,91.92
2022-12-04T12:01:30.358Z,91.94
2022-12-04T12:04:02.900Z,91.79
2022-12-04T12:06:48.041Z,92.22
2022-12-04T12:09:25.708Z,92.07
2022-12-04T12:12:03.023Z,91.40
2022-12-04T12:14:41.103Z,91.73
2022-12-04T12:17:15.260Z,91.13
2022-12-04T12:20:06.471Z,90.73
2022-12-04T12:22:51.486Z,91.24
2022-12-04T12:25:29.701Z,91.03
2022-12-04T12:28:07.924Z,91.91
2022-12-04T12:31:06.413Z,91.84
2022-12-04T12:33:43.447Z,91.68
2022-12-04T12:36:12.483Z,91.78
2022-12-04T12:38:53.966Z,91.52
2022-12-04T12:41:29.772Z,91.57
2022-12-04T12:44:21.402Z,91.06
2022-12-04T12:47:00.400Z,90.96
2022-12-04T12:49:52.719Z,91.33
2022-12-04T12:52:35.967Z,92.30
2022-12-04T12:55:25.820Z,91.75
2022-12-04T12:58:04.693Z,93.43
2022-12-04T13:00:36.725Z,93.47
2022-12-04T13:03:28.077Z,93.45
2022-12-04T13:05:59.532Z,93.74
2022-12-04T13:08:30.702Z,93.70
2022-12-04T13:11:12.275Z,93.90
2022-12-04T13:13:57.945Z,94.13
2022-12-04T13:16:31.112Z,94.16
2022-12-04T13:19:18.350Z,93.65
2022-12-04T13:22:04.989Z,94.75
2022-12-04T13:24:47.656Z,95.04
2022-12-04T13:27:23.258Z,94.84
2022-12-04T13:30:15.130Z,94.52
2022-12-04T13:33:03.585Z,94.16
2022-12-04T13:36:01.598Z,94.19
2022-12-04T13:38:55.096Z,94.40
2022-12-04T13:41:26.204Z,95.27
2022-12-04T13:43:53.845Z,95.65
2022-12-04T13:46:49.247Z,94.86
2022-12-04T13:49:15.607Z,94.75
2022-12-04T13:51:42.600Z,93.96
2022-12-04T13:54:12.023Z,93.64
2022-12-04T13:56:53.450Z,94.20
2022-12-04T13:59:29.456Z,94.24
2022-12-04T14:02:01.290Z,94.17
2022-12-04T14:04:44.368Z,94.42
2022-12-04T14:07:51.567Z,94.08
2022-12-04T14:10:18.032Z,94.01
2022-12-04T14:13:02.189Z,93.67
2022-12-04T14:15:32.337Z,94.17
2022-12-04T14:18:01.284Z,94.78
2022-12-04T14:20:30.683Z,94.59
2022-12-04T14:23:16.332Z,95.80
2022-12-04T14:25:42.813Z,94.89
2022-12-04T14:28:27.776Z,95.20
2022-12-04T14:31:20.436Z,93.87
2022-12-04T14:33:58.734Z,94.14
2022-12-04T14:36:28.782Z,94.64
2022-12-04T14:39:03.596Z,94.34
2022-12-04T14:41:30.428Z,93.80
2022-12-04T14:43:57.584Z,93.45
2022-12-04T14:46:44.619Z,93.10
2022-12-04T14:49:23.046Z,93.56
2022-12-04T14:52:18.506Z,93.54
2022-12-04T14:55:15.974Z,94.11
2022-12-04T14:57:49.529Z,94.93
2022-12-04T15:00:22.298Z,94.64
2022-12-04T15:02:56.088Z,94.25
2022-12-04T15:05:29.037Z,93.91
2022-12-04T15:08:02.602Z,94.25
2022-12-04T15:10:49.881Z,93.83
2022-12-04T15:13:27.778Z,93.77
2022-12-04T15:15:54.525Z,93.71
2022-12-04T15:18:21.360Z,93.77
2022-12-04T15:20:48.023Z,92.92
2022-12-04T15:23:17.007Z,93.89
2022-12-04T15:25:47.260Z,93.39
2022-12-04T15:28:19.435Z,93.04
2022-12-04T15:30:49.904Z,92.80
2022-12-04T15:33:26.525Z,92.84
2022-12-04T15:36:00.259Z,93.34
2022-12-04T15:38:27.112Z,93.11
2022-12-04T15:40:59.965Z,93.42
2022-12-04T15:43:32.459Z,93.33
2022-12-04T15:45:59.453Z,93.35
2022-12-04T15:48:27.970Z,93.31
2022-12-04T15:51:00.756Z,92.49
2022-12-04T15:53:31.297Z,92.14
2022-12-04T15:56:02.531Z,92.42
2022-12-04T15:58:34.508Z,92.03
2022-12-04T16:01:07.713Z,91.65
2022-12-04T16:03:47.646Z,91.66
2022-12-04T16:06:17.130Z,91.73
2022-12-04T16:08:45.860Z,91.90
2022-12-04T16:11:21.578Z,91.96
2022-12-04T16:14:08.579Z,92.15
2022-12-04T16:16:38.211Z,92.38
2022-12-04T16:19:38.618Z,92.76
2022-12-04T16:22:13.227Z,94.64
2022-12-04T16:24:39.817Z,94.25
2022-12-04T16:27:12.504Z,94.90
2022-12-04T16:29:39.041Z,95.41
2022-12-04T16:32:05.913Z,95.44
2022-12-04T16:34:32.737Z,96.95
2022-12-04T16:36:59.232Z,97.78
2022-12-04T16:39:25.676Z,99.43
2022-12-04T16:41:52.096Z,100.00
2022-12-04T16:44:18.562Z,99.51
2022-12-04T16:46:45.139Z,98.61
2022-12-04T16:49:12.973Z,97.90
2022-12-04T16:51:45.725Z,96.77
2022-12-04T16:54:13.168Z,95.82
2022-12-04T16:56:39.645Z,95.61
2022-12-04T16:59:10.435Z,94.50
2022-12-04T17:01:43.613Z,94.58
2022-12-04T17:04:10.426Z,95.19
2022-12-04T17:06:37.137Z,95.03
2022-12-04T17:09:04.413Z,94.38
2022-12-04T17:11:30.902Z,95.39
2022-12-04T17:14:07.014Z,95.81
2022-12-04T17:16:38.107Z,95.42
2022-12-04T17:19:04.928Z,95.78
2022-12-04T17:21:31.451Z,94.82
2022-12-04T17:23:57.935Z,94.98
2022-12-04T17:26:24.332Z,94.29
2022-12-04T17:28:51.001Z,93.63
2022-12-04T17:31:23.549Z,93.91
2022-12-04T17:33:50.825Z,94.15
2022-12-04T17:36:20.528Z,93.40
2022-12-04T17:38:47.318Z,93.72
2022-12-04T17:41:15.320Z,93.45
2022-12-04T17:43:43.040Z,93.69
2022-12-04T17:46:17.344Z,93.46
2022-12-04T17:48:43.805Z,93.17
2022-12-04T17:51:15.655Z,93.05
2022-12-04T17:53:42.317Z,92.75
2022-12-04T17:56:11.749Z,93.09
2022-12-04T17:58:38.552Z,94.78
2022-12-04T18:01:09.693Z,95.27
2022-12-04T18:03:36.467Z,95.49
2022-12-04T18:06:21.312Z,95.33
2022-12-04T18:08:50.281Z,94.97
2022-12-04T18:11:20.392Z,94.11
2022-12-04T18:13:49.021Z,94.21
2022-12-04T18:16:15.867Z,96.09
2022-12-04T18:18:42.525Z,95.84
2022-12-04T18:21:11.938Z,95.37
2022-12-04T18:23:44.935Z,95.52
2022-12-04T18:26:18.503Z,93.98
2022-12-04T18:28:45.720Z,93.88
2022-12-04T18:31:14.062Z,93.60
2022-12-04T18:33:42.277Z,93.38
2022-12-04T18:36:16.493Z,93.02
2022-12-04T18:38:43.704Z,93.18
2022-12-04T18:41:12.612Z,93.05
2022-12-04T18:43:41.606Z,92.72
2022-12-04T18:46:11.098Z,92.13
2022-12-04T18:48:40.109Z,91.98
2022-12-04T18:51:29.500Z,92.18
2022-12-04T18:54:00.023Z,92.31
2022-12-04T18:56:27.023Z,92.06
2022-12-04T18:59:08.636Z,92.40
2022-12-04T19:01:35.155Z,92.50
2022-12-04T19:04:06.058Z,92.11
2022-12-04T19:06:38.929Z,91.65
2022-12-04T19:09:09.216Z,91.66
2022-12-04T19:11:38.829Z,91.09
2022-12-04T19:14:14.729Z,91.13
2022-12-04T19:16:43.696Z,91.01
2022-12-04T19:19:14.006Z,91.10
2022-12-04T19:21:40.413Z,91.29
2022-12-04T19:24:07.374Z,91.26
2022-12-04T19:26:35.001Z,91.25
2022-12-04T19:29:03.192Z,91.12
2022-12-04T19:31:33.158Z,91.45
2022-12-04T19:33:59.865Z,91.00
2022-12-04T19:36:28.879Z,90.39
2022-12-04T19:38:57.368Z,90.14
2022-12-04T19:41:26.943Z,90.19
2022-12-04T19:43:56.540Z,90.27
2022-12-04T19:46:26.179Z,90.02
2022-12-04T19:48:54.681Z,89.83
2022-12-04T19:51:21.275Z,90.25
2022-12-04T19:53:48.835Z,90.21
2022-12-04T19:56:18.469Z,90.11
2022-12-04T19:58:45.269Z,90.63
2022-12-04T20:01:17.304Z,90.53
2022-12-04T20:03:44.275Z,90.79
2022-12-04T20:06:14.023Z,90.48
2022-12-04T20:08:42.088Z,90.25
2022-12-04T20:11:13.270Z,90.50
2022-12-04T20:13:40.703Z,90.76
2022-12-04T20:16:10.977Z,91.24
2022-12-04T20:18:39.228Z,91.53
2022-12-04T20:21:10.922Z,91.15
2022-12-04T20:23:42.476Z,91.95
2022-12-04T20:26:11.403Z,91.47
2022-12-04T20:28:38.480Z,91.24
2022-12-04T20:31:33.156Z,90.85
2022-12-04T20:34:01.732Z,91.07
2022-12-04T20:36:30.205Z,90.90
2022-12-04T20:38:58.388Z,90.40
2022-12-04T20:41:27.581Z,90.93
2022-12-04T20:43:54.978Z,91.02
2022-12-04T20:46:33.715Z,90.65
2022-12-04T20:49:01.948Z,90.86
2022-12-04T20:51:31.306Z,90.61
2022-12-04T20:53:59.377Z,90.91
2022-12-04T20:56:31.948Z,90.87
2022-12-04T20:59:00.646Z,90.15
2022-12-04T21:01:27.964Z,89.06
2022-12-04T21:03:54.496Z,89.16
2022-12-04T21:06:23.850Z,88.69
2022-12-04T21:08:54.605Z,88.95
2022-12-04T21:11:30.750Z,89.02
2022-12-04T21:14:16.820Z,89.21
2022-12-04T21:16:43.876Z,89.16
2022-12-04T21:19:12.193Z,89.26
2022-12-04T21:21:38.816Z,88.90
2022-12-04T21:24:07.769Z,88.55
2022-12-04T21:26:34.652Z,88.60
2022-12-04T21:29:03.486Z,88.33
2022-12-04T21:31:30.514Z,88.50
2022-12-04T21:34:01.484Z,88.37
2022-12-04T21:36:28.685Z,88.08
2022-12-04T21:38:55.758Z,88.17
2022-12-04T21:41:41.961Z,88.00
2022-12-04T21:44:11.860Z,87.97
2022-12-04T21:46:39.064Z,87.64
2022-12-04T21:49:05.858Z,87.72
2022-12-04T21:51:56.129Z,87.54
2022-12-04T21:54:19.185Z,87.96
2022-12-04T21:56:45.718Z,87.52
2022-12-04T21:59:12.288Z,87.77
2022-12-04T22:01:39.368Z,87.72
2022-12-04T22:04:06.024Z,88.12
2022-12-04T22:06:36.043Z,87.65
2022-12-04T22:09:05.952Z,87.98
2022-12-04T22:11:32.525Z,88.57
2022-12-04T22:13:59.033Z,88.46
2022-12-04T22:16:30.327Z,88.63
2022-12-04T22:18:58.858Z,88.78
2022-12-04T22:21:26.739Z,88.93
2022-12-04T22:24:01.568Z,89.23
2022-12-04T22:26:29.224Z,89.12
2022-12-04T22:28:56.161Z,88.91
2022-12-04T22:31:25.814Z,89.24
2022-12-04T22:33:54.597Z,89.32
2022-12-04T22:36:23.972Z,89.32
2022-12-04T22:39:09.898Z,89.27
2022-12-04T22:41:37.854Z,89.16
2022-12-04T22:44:04.612Z,89.27
2022-12-04T22:46:31.372Z,89.09
2022-12-04T22:48:59.349Z,88.85
2022-12-04T22:51:27.121Z,88.50
2022-12-04T22:53:55.842Z,88.65
2022-12-04T22:56:28.032Z,89.15
2022-12-04T22:58:55.157Z,89.25
2022-12-04T23:01:29.686Z,88.59
2022-12-04T23:03:56.577Z,88.65
2022-12-04T23:06:26.004Z,88.32
2022-12-04T23:09:00.486Z,87.71
2022-12-04T23:11:27.890Z,88.27
2022-12-04T23:14:02.530Z,88.69
2022-12-04T23:16:31.304Z,88.72
2022-12-04T23:18:57.996Z,88.79
2022-12-04T23:21:24.866Z,88.67
2022-12-04T23:23:53.394Z,88.45
2022-12-04T23:26:23.764Z,88.87
2022-12-04T23:28:50.445Z,89.07
2022-12-04T23:31:17.676Z,88.63
2022-12-04T23:33:44.398Z,88.49
2022-12-04T23:36:12.414Z,88.22
2022-12-04T23:38:40.497Z,88.97
2022-12-04T23:41:12.403Z,88.55
2022-12-04T23:43:40.105Z,88.52
2022-12-04T23:46:11.180Z,88.66
2022-12-04T23:48:39.847Z,88.65
2022-12-04T23:51:07.722Z,88.67
2022-12-04T23:53:34.596Z,88.95
2022-12-04T23:56:07.065Z,89.17
2022-12-04T23:58:34.634Z,89.24
